Amargosa Valley, Nevada Weather observations

Data are for observation ending at time listed.
 Day   Time    Ave.   Ave.  Ave.  Vector   Max.   Stn.    Total    Solar   Ave.  
  of    of     Air    Rel.  Wind   Wind    Wind   Baro.  Precip.   Rad.    Soil  
Year   Day     Temp.  Hum.  Speed  Dir.    Gust   Pres.                    Temp. 
2014   (PST)    F      %     mph   deg.    mph     mb.     in.     W/m2     F   
------------------------------------------------------------------------------
 264    4:50   65.8    70    6.4   308     12.5   928.8    0.00       0    77.4
 264    5:00   65.9    70    4.7   311      8.0   928.8    0.00       0    77.3
 264    5:10   65.4    74    3.9   311      9.4   928.9    0.01       0    77.3
 264    5:20   64.7    76    6.4   307     10.5   929.0    0.00       0    77.2
 264    5:30   65.4    74    4.2   317      7.4   928.9    0.00       1    77.1
 264    5:40   65.9    72    4.1   315      9.0   929.0    0.00       4    77.0
 264    5:50   65.8    72    3.9   316      6.3   929.0    0.00      16    76.9
 264    6:00   66.3    70    6.3   308     12.1   929.2    0.00      36    76.9
 264    6:10   67.2    67    7.7   307     12.2   929.3    0.00      67    76.8
 264    6:20   67.6    66    4.9   313      9.9   929.5    0.00      60    76.7
 264    6:30   68.0    66    5.2   314     11.7   929.7    0.00      86    76.6
 264    6:40   67.8    66    6.6   309     11.8   929.8    0.00     116    76.5
 264    6:50   68.1    67    4.2   315      7.3   929.9    0.00     143    76.4
 264    7:00   68.7    66    3.1   320      6.1   929.9    0.00      76    76.4
 264    7:10   68.5    66    5.9   305     10.1   930.0    0.00      44    76.3
 264    7:20   68.2    68    7.1   306     12.8   930.1    0.00     281    76.3
 264    7:30   69.6    65    4.7   316     10.8   930.0    0.00     371    76.2
 264    7:40   71.0    62    5.8   308      9.1   930.1    0.00     404    76.1
 264    7:50   71.8    60    6.3   307     11.0   930.1    0.00     435    76.0
 264    8:00   72.2    60    7.5   306     12.3   930.3    0.00     486    76.0
 264    8:10   73.2    57    7.2   308     13.2   930.4    0.00     521    76.0
 264    8:20   74.2    55    6.9   306     10.3   930.4    0.00     442    75.9
 264    8:30   74.8    53    7.2   305     11.4   930.5    0.00     555    75.8
 264    8:40   75.2    53    6.3   307     11.2   930.6    0.00     444    75.9
 264    8:50   76.1    50    5.6   306     10.6   930.7    0.00     632    75.9
 264    9:00   76.9    49    6.5   308     10.0   930.8    0.00     673    75.9
 264    9:10   77.7    49    5.0   307      9.8   930.8    0.00     655    75.9
 264    9:20   78.7    46    3.0   300      7.2   930.9    0.00     395    75.9
 264    9:30   79.1    45    4.6   308      9.0   930.9    0.00     278    75.9
 264    9:40   79.9    44    2.5   297      7.2   930.9    0.00     424    76.0
 264    9:50   80.6    43    1.5   280      4.2   930.9    0.00     529    76.1
 264   10:00   81.0    42    2.1   285      5.3   930.9    0.00     478    76.2
 264   10:10   80.3    42    1.9   272      5.2   930.9    0.00     580    76.3
 264   10:20   81.1    41    2.2   224      5.8   930.9    0.00     803    76.4
 264   10:30   81.5    40    2.2   230      5.6   930.9    0.00     829    76.5
 264   10:40   82.7    39    1.9    58      4.2   930.9    0.00     824    76.7
 264   10:50   83.2    39    3.1   193      6.9   930.9    0.00     786    76.8
 264   11:00   83.2    38    3.1   188      8.5   930.8    0.00     779    76.9
 264   11:10   83.1    37    4.2   169      8.6   930.7    0.00     783    77.1
 264   11:20   83.2    37    5.3   167      9.4   930.7    0.00     788    77.3
 264   11:30   83.9    36    5.1   153      9.8   930.6    0.00     793    77.5
 264   11:40   84.1    35    4.5   152     10.3   930.4    0.00     797    77.7
 264   11:50   84.7    34    5.7   162     11.3   930.2    0.00     795    77.9
 264   12:00   84.9    34    5.2   158      9.4   930.1    0.00     791    78.2
 264   12:10   85.2    33    7.1   145     12.2   930.0    0.00     792    78.5
 264   12:20   85.0    33    5.7   133     10.0   929.8    0.00     791    78.8
 264   12:30   85.4    33    6.3   154     11.5   929.6    0.00     784    79.1
 264   12:40   85.9    33    7.5   175     14.0   929.4    0.00     778    79.4
 264   12:50   86.5    32    8.5   188     14.8   929.2    0.00     769    79.7
 264   13:00   87.0    31    9.1   178     17.0   929.1    0.00     756    80.1
 264   13:10   87.2    30    8.9   164     15.4   928.9    0.00     745    80.4
 264   13:20   87.2    31    8.9   141     13.6   928.9    0.00     732    80.7
 264   13:30   87.5    26    8.9   177     14.9   928.8    0.00     713    81.1
 264   13:40   88.1    23   10.1   183     15.8   928.7    0.00     691    81.4
 264   13:50   88.3    24    9.3   182     16.0   928.6    0.00     671    81.7
 264   14:00   88.6    26    8.1   180     17.5   928.6    0.00     649    82.0
 264   14:10   88.7    27    8.3   185     13.5   928.5    0.00     638    82.3
 264   14:20   88.8    26    5.6   213     13.2   928.4    0.00     625    82.6
 264   14:30   88.5    26    8.7   180     14.5   928.4    0.00     601    82.9
 264   14:40   88.7    26    8.9   210     16.6   928.3    0.00     573    83.2
 264   14:50   88.6    26    6.4   201     12.1   928.1    0.00     531    83.4
 264   15:00   89.1    25    4.5   201      9.8   928.0    0.00     500    83.7
 264   15:10   89.4    24    5.8   205     11.4   927.9    0.00     471    84.0
 264   15:20   88.8    23    8.0   160     16.6   927.9    0.00     450    84.2
 264   15:30   89.0    23   10.5   177     16.6   927.8    0.00     417    84.5
 264   15:40   89.0    22   10.1   168     16.4   927.7    0.00     304    84.6
 264   15:50   89.3    22   10.2   161     16.4   927.6    0.00     162    84.8
 264   16:00   89.0    22   10.9   190     15.9   927.5    0.00      36    84.9
 264   16:10   88.8    22    9.6   186     15.9   927.5    0.00      34    85.0
 264   16:20   88.9    22    9.4   183     15.1   927.4    0.00      32    85.1
 264   16:30   88.6    22   10.3   171     14.7   927.4    0.00      33    85.1
 264   16:40   88.4    21    9.9   168     15.7   927.5    0.00      40    85.2
 264   16:50   88.2    21    9.8   160     13.0   927.5    0.00      25    85.2
 264   17:00   88.0    21    7.5   171     11.9   927.5    0.00      23    85.2
 264   17:10   87.8    20    7.0   180     12.1   927.6    0.00      17    85.3
 264   17:20   87.3    20    7.0   177     10.1   927.5    0.00      16    85.3
 264   17:30   86.7    21    5.3   171      8.5   927.6    0.00      11    85.3
 264   17:40   85.8    21    5.3   165      8.4   927.6    0.00       6    85.4
 264   17:50   84.8    24    4.2   149      5.8   927.5    0.00       3    85.4
 264   18:00   83.9    24    3.9   147      5.6   927.6    0.00       1    85.3
 264   18:10   82.9    27    3.6   141      5.3   927.6    0.00       0    85.3
 264   18:20   82.0    29    3.2   146      4.2   927.6    0.00       0    85.3
 264   18:30   81.4    30    3.5   141      5.7   927.7    0.00       0    85.2
 264   18:40   81.1    31    3.2   119      4.7   927.7    0.00       0    85.2
 264   18:50   80.5    33    3.0   107      4.0   927.8    0.00       0    85.1
 264   19:00   80.3    33    3.1   107      4.1   927.9    0.00       0    85.0
 264   19:10   79.7    34    2.9   130      3.9   928.0    0.00       0    84.9
 264   19:20   79.2    35    3.0   105      3.9   928.0    0.00       0    84.9
 264   19:30   78.8    36    3.3   103      4.3   928.1    0.00       0    84.8
 264   19:40   78.1    37    3.1   119      4.3   928.2    0.00       0    84.7
 264   19:50   78.0    37    2.2   114      3.1   928.2    0.00       0    84.6
 264   20:00   78.7    34    3.4    94      4.3   928.2    0.00       0    84.5
 264   20:10   78.1    36    3.3    98      4.0   928.2    0.00       0    84.4
 264   20:20   78.0    36    3.0    98      3.9   928.3    0.00       0    84.3
 264   20:30   78.3    35    2.5    99      3.3   928.3    0.00       0    84.2
 264   20:40   78.5    33    3.1    89      4.4   928.4    0.00       0    84.1
 264   20:50   78.2    33    2.4    79      4.2   928.4    0.00       0    84.0
 264   21:00   77.7    35    1.7    90      2.7   928.5    0.00       0    83.9
 264   21:10   78.0    34    1.7    88      2.2   928.5    0.00       0    83.8
 264   21:20   77.5    35    3.1    87      5.5   928.6    0.00       0    83.7
 264   21:30   76.5    36    4.7    82      6.7   928.6    0.00       0    83.6
 264   21:40   76.9    34    4.6    91      6.1   928.7    0.00       0    83.5
 264   21:50   76.7    34    3.9    91      5.7   928.8    0.00       0    83.4
 264   22:00   76.6    34    3.1    92      4.9   928.8    0.00       0    83.3
 264   22:10   77.7    31    5.5    84      7.5   928.8    0.00       0    83.2
 264   22:20   77.4    30    5.4    84      7.2   928.9    0.00       0    83.1
 264   22:30   77.9    30    4.1    69      7.0   929.0    0.00       0    83.0
 264   22:40   73.3    37    2.5    32      4.2   929.1    0.00       0    82.9
 264   22:50   72.1    36    2.9    32      4.5   929.1    0.00       0    82.8
 264   23:00   71.4    36    2.9    33      5.7   929.1    0.00       0    82.7
 264   23:10   71.4    36    2.8    34      4.8   929.0    0.00       0    82.6
 264   23:20   71.1    37    3.2    32      5.8   929.0    0.00       0    82.5
 264   23:30   70.6    37    3.2    32      4.8   929.0    0.00       0    82.4
 264   23:40   70.5    37    3.0    31      6.6   929.1    0.00       0    82.3
 264   23:50   70.8    36    2.9    36      4.7   929.1    0.00       0    82.2
 265    0:00   70.7    37    2.6    38      4.7   929.3    0.00       0    82.1
 265    0:10   71.2    36    2.9    54      5.2   929.4    0.00       0    82.0
 265    0:20   72.1    37    0.9    78      3.8   929.5    0.00       0    81.9
 265    0:30   69.0    43    0.6   317      2.5   929.6    0.00       0    81.8
 265    0:40   68.6    43    0.2   333      1.5   929.6    0.00       0    81.7
 265    0:50   67.9    45    2.0   320      3.4   929.6    0.00       0    81.6
 265    1:00   67.0    48    1.5   321      2.9   929.6    0.00       0    81.5
 265    1:10   67.5    47    0.7   326      2.3   929.5    0.00       0    81.4
 265    1:20   67.9    47    0.6   330      1.5   929.5    0.00       0    81.3
 265    1:30   67.4    49    1.3   326      2.2   929.4    0.00       0    81.2
 265    1:40   67.2    51    1.2   321      2.5   929.4    0.00       0    81.1
 265    1:50   67.2    52    1.3   318      2.9   929.4    0.00       0    81.0
 265    2:00   67.0    54    0.3   322      1.8   929.4    0.00       0    80.9
 265    2:10   66.6    55    0.6   312      2.1   929.4    0.00       0    80.8
 265    2:20   66.9    54    1.6    26      4.2   929.5    0.00       0    80.7
 265    2:30   67.9    52    1.2    17      3.2   929.5    0.00       0    80.5
 265    2:40   67.8    52    0.5    17      2.9   929.6    0.00       0    80.4
 265    2:50   67.5    52    2.8   307      5.2   929.7    0.00       0    80.3
 265    3:00   67.1    53    2.1   307      4.8   929.7    0.00       0    80.2
 265    3:10   66.8    54    1.7   309      4.2   929.8    0.00       0    80.1
 265    3:20   66.0    56    1.8   314      3.0   929.8    0.00       0    80.0
 265    3:30   65.6    57    1.9   315      3.0   929.8    0.00       0    79.9
 265    3:40   65.5    57    1.1   316      2.9   929.7    0.00       0    79.8
 265    3:50   64.8    59    1.4   318      2.8   929.7    0.00       0    79.7
 265    4:00   64.4    60    0.3   319      1.2   929.7    0.00       0    79.6
 265    4:10   64.0    63    0.1   328      1.2   929.7    0.00       0    79.5
 265    4:20   64.2    62    2.0   311      4.6   929.8    0.00       0    79.4
 265    4:30   64.4    62    2.7   308      5.0   929.8    0.00       0    79.4
 265    4:40   64.2    62    3.4   310      5.0   929.9    0.00       0    79.2

Return to Amargosa Valley, Nevada graphs page.


Western Regional Climate Center,wrcc@dri.edu